Time,TemperatureF,DewpointF,PressureIn,WindDirection,WindDirectionDegrees,WindSpeedMPH,WindSpeedGustMPH,Humidity,HourlyPrecipIn,Conditions,Clouds,dailyrainin,SoftwareType,DateUTC
2013-07-26 06:49:00,63.5,53.6,29.94,North,-999,0.0,3.6,70,0.00,,,-99.99,FreeWX 2.04,2013-07-26 10:49:00,
2013-07-26 06:55:00,63.7,53.2,29.94,North,-999,0.0,0.0,69,0.00,,,-99.99,FreeWX 2.04,2013-07-26 10:55:00,
2013-07-26 07:00:00,63.9,53.4,29.94,North,-999,0.0,0.0,69,0.00,,,-99.99,FreeWX 2.04,2013-07-26 11:00:00,
2013-07-26 07:05:00,64.0,53.6,29.94,North,-999,0.0,3.1,69,0.00,,,-99.99,FreeWX 2.04,2013-07-26 11:05:00,
2013-07-26 07:10:00,64.4,53.6,29.94,North,-999,0.0,0.0,68,0.00,,,-99.99,FreeWX 2.04,2013-07-26 11:10:00,
2013-07-26 07:15:00,64.6,53.8,29.94,North,-999,0.0,0.0,68,0.00,,,-99.99,FreeWX 2.04,2013-07-26 11:15:00,
2013-07-26 07:20:00,64.6,52.9,29.94,North,-999,0.0,0.0,66,0.00,,,-99.99,FreeWX 2.04,2013-07-26 11:20:00,
2013-07-26 07:25:00,64.8,52.7,29.94,North,-999,0.0,3.6,65,0.00,,,-99.99,FreeWX 2.04,2013-07-26 11:25:00,
2013-07-26 07:30:00,64.8,52.7,29.94,North,-999,0.0,0.0,65,0.00,,,-99.99,FreeWX 2.04,2013-07-26 11:30:00,
2013-07-26 07:35:00,64.6,51.6,29.94,North,-999,0.0,0.0,63,0.00,,,-99.99,FreeWX 2.04,2013-07-26 11:35:00,
2013-07-26 07:40:00,64.2,50.9,29.94,North,-999,0.0,0.0,62,0.00,,,-99.99,FreeWX 2.04,2013-07-26 11:40:00,
2013-07-26 07:45:00,63.9,50.2,29.94,North,-999,0.0,0.0,61,0.00,,,-99.99,FreeWX 2.04,2013-07-26 11:45:00,
2013-07-26 07:50:00,63.7,50.0,29.94,North,-999,0.0,0.0,61,0.00,,,-99.99,FreeWX 2.04,2013-07-26 11:50:00,
2013-07-26 07:55:00,63.5,49.8,29.94,North,-999,0.0,0.0,61,0.00,,,-99.99,FreeWX 2.04,2013-07-26 11:55:00,
2013-07-26 08:00:00,63.5,49.8,29.94,North,-999,0.0,0.0,61,0.00,,,-99.99,FreeWX 2.04,2013-07-26 12:00:00,
2013-07-26 08:05:00,63.5,49.8,29.94,North,-999,0.0,0.0,61,0.00,,,-99.99,FreeWX 2.04,2013-07-26 12:05:00,
2013-07-26 08:10:00,63.5,50.2,29.94,North,-999,0.0,0.0,62,0.00,,,-99.99,FreeWX 2.04,2013-07-26 12:10:00,
2013-07-26 08:15:00,63.5,50.2,29.94,North,-999,0.0,0.0,62,0.00,,,-99.99,FreeWX 2.04,2013-07-26 12:15:00,
2013-07-26 08:20:00,63.5,49.8,29.94,North,-999,0.0,0.0,61,0.00,,,-99.99,FreeWX 2.04,2013-07-26 12:20:00,
2013-07-26 08:25:00,63.7,50.4,29.94,North,-999,0.0,0.0,62,0.00,,,-99.99,FreeWX 2.04,2013-07-26 12:25:00,
2013-07-26 08:30:00,63.7,50.4,29.94,North,-999,0.0,0.0,62,0.00,,,-99.99,FreeWX 2.04,2013-07-26 12:30:00,
2013-07-26 08:35:00,63.9,50.5,29.94,North,-999,0.0,0.0,62,0.00,,,-99.99,FreeWX 2.04,2013-07-26 12:35:00,
2013-07-26 08:40:00,63.9,50.2,29.94,North,-999,0.0,0.0,61,0.00,,,-99.99,FreeWX 2.04,2013-07-26 12:40:00,
2013-07-26 08:45:00,63.7,50.0,29.94,North,-999,0.0,0.0,61,0.00,,,-99.99,FreeWX 2.04,2013-07-26 12:45:00,
2013-07-26 08:50:00,63.5,49.3,29.94,North,-999,0.0,0.0,60,0.00,,,-99.99,FreeWX 2.04,2013-07-26 12:50:00,
2013-07-26 08:55:00,63.3,49.3,29.94,North,-999,0.0,0.0,60,0.00,,,-99.99,FreeWX 2.04,2013-07-26 12:55:00,
2013-07-26 09:00:00,63.3,49.3,29.94,North,-999,0.0,0.0,60,0.00,,,-99.99,FreeWX 2.04,2013-07-26 13:00:00,
2013-07-26 09:05:00,63.3,49.3,29.94,North,-999,0.0,0.0,60,0.00,,,-99.99,FreeWX 2.04,2013-07-26 13:05:00,
2013-07-26 09:10:00,63.5,49.3,29.94,North,-999,0.0,0.0,60,0.00,,,-99.99,FreeWX 2.04,2013-07-26 13:10:00,
2013-07-26 09:15:00,63.5,49.3,29.94,North,-999,0.0,0.0,60,0.00,,,-99.99,FreeWX 2.04,2013-07-26 13:15:00,
2013-07-26 09:20:00,63.9,49.6,29.94,North,-999,0.0,0.0,60,0.00,,,-99.99,FreeWX 2.04,2013-07-26 13:20:00,
2013-07-26 09:25:00,63.9,49.3,29.94,North,-999,0.0,0.0,59,0.00,,,-99.99,FreeWX 2.04,2013-07-26 13:25:00,
2013-07-26 09:30:00,63.9,49.3,29.94,North,-999,0.0,0.0,59,0.00,,,-99.99,FreeWX 2.04,2013-07-26 13:30:00,
2013-07-26 09:35:00,63.9,49.3,29.94,North,-999,0.0,0.0,59,0.00,,,-99.99,FreeWX 2.04,2013-07-26 13:35:00,
2013-07-26 09:40:00,64.2,50.0,29.94,North,-999,0.0,0.0,60,0.00,,,-99.99,FreeWX 2.04,2013-07-26 13:40:00,
2013-07-26 09:45:00,64.6,50.4,29.94,North,-999,0.0,0.0,60,0.00,,,-99.99,FreeWX 2.04,2013-07-26 13:45:00,
2013-07-26 09:50:00,65.3,51.4,29.94,North,-999,0.0,0.0,61,0.00,,,-99.99,FreeWX 2.04,2013-07-26 13:50:00,
2013-07-26 09:55:00,65.7,51.4,29.94,North,-999,0.0,4.0,60,0.00,,,-99.99,FreeWX 2.04,2013-07-26 13:55:00,
2013-07-26 10:00:00,65.8,50.7,29.94,North,-999,0.0,0.0,58,0.00,,,-99.99,FreeWX 2.04,2013-07-26 14:00:00,
2013-07-26 10:05:00,66.0,50.7,29.94,North,-999,0.0,3.6,58,0.00,,,-99.99,FreeWX 2.04,2013-07-26 14:05:00,
2013-07-26 10:10:00,66.2,50.5,29.94,North,-999,0.0,0.0,57,0.00,,,-99.99,FreeWX 2.04,2013-07-26 14:10:00,
2013-07-26 10:15:00,66.2,50.0,29.94,North,-999,0.0,0.0,56,0.00,,,-99.99,FreeWX 2.04,2013-07-26 14:15:00,
2013-07-26 10:20:00,66.2,50.0,29.94,North,-999,0.0,0.0,56,0.00,,,-99.99,FreeWX 2.04,2013-07-26 14:20:00,
2013-07-26 10:25:00,66.2,50.0,29.94,North,-999,0.0,0.0,56,0.00,,,-99.99,FreeWX 2.04,2013-07-26 14:25:00,
2013-07-26 10:30:00,66.2,50.0,29.94,North,-999,0.0,0.0,56,0.00,,,-99.99,FreeWX 2.04,2013-07-26 14:30:00,
2013-07-26 10:35:00,66.6,50.4,29.94,North,-999,0.0,5.4,56,0.00,,,-99.99,FreeWX 2.04,2013-07-26 14:35:00,
2013-07-26 10:40:00,67.3,52.0,29.91,North,-999,0.0,0.0,58,0.00,,,-99.99,FreeWX 2.04,2013-07-26 14:40:00,
2013-07-26 10:45:00,68.2,52.9,29.91,North,-999,0.0,0.0,58,0.00,,,-99.99,FreeWX 2.04,2013-07-26 14:45:00,
2013-07-26 10:50:00,69.1,52.7,29.91,North,-999,0.0,2.7,56,0.00,,,-99.99,FreeWX 2.04,2013-07-26 14:50:00,
2013-07-26 10:55:00,70.0,52.0,29.91,North,-999,0.0,4.5,53,0.00,,,-99.99,FreeWX 2.04,2013-07-26 14:55:00,
2013-07-26 11:00:00,71.2,51.6,29.91,North,-999,0.0,0.0,50,0.00,,,-99.99,FreeWX 2.04,2013-07-26 15:00:00,
2013-07-26 11:05:00,73.0,51.6,29.91,North,-999,0.0,5.4,47,0.00,,,-99.99,FreeWX 2.04,2013-07-26 15:05:00,
2013-07-26 11:10:00,74.5,49.3,29.94,North,-999,0.0,4.0,41,0.00,,,-99.99,FreeWX 2.04,2013-07-26 15:10:00,
2013-07-26 11:20:00,74.7,43.7,29.94,North,-999,0.0,4.5,33,0.00,,,-99.99,FreeWX 2.04,2013-07-26 15:20:00,
2013-07-26 11:25:00,74.1,43.2,29.94,NNE,18,1.0,6.3,33,0.00,,,-99.99,FreeWX 2.04,2013-07-26 15:25:00,
2013-07-26 11:30:00,73.9,43.0,29.94,WNW,296,1.0,4.5,33,0.00,,,-99.99,FreeWX 2.04,2013-07-26 15:30:00,
2013-07-26 11:35:00,73.9,43.7,29.94,North,-999,0.0,4.9,34,0.00,,,-99.99,FreeWX 2.04,2013-07-26 15:35:00,
2013-07-26 11:40:00,73.9,43.7,29.91,North,-999,0.0,4.9,34,0.00,,,-99.99,FreeWX 2.04,2013-07-26 15:40:00,
2013-07-26 11:45:00,73.9,43.7,29.91,North,-999,0.0,4.0,34,0.00,,,-99.99,FreeWX 2.04,2013-07-26 15:45:00,
2013-07-26 11:50:00,74.7,44.4,29.91,North,-999,0.0,4.5,34,0.00,,,-99.99,FreeWX 2.04,2013-07-26 15:50:00,
2013-07-26 12:00:00,76.3,43.3,29.91,WNW,293,1.0,4.5,31,0.00,,,-99.99,FreeWX 2.04,2013-07-26 16:00:00,
2013-07-26 12:05:00,76.5,42.6,29.91,South,188,1.0,4.5,30,0.00,,,-99.99,FreeWX 2.04,2013-07-26 16:05:00,
2013-07-26 12:10:00,76.8,43.0,29.91,North,-999,0.0,3.6,30,0.00,,,-99.99,FreeWX 2.04,2013-07-26 16:10:00,
2013-07-26 12:15:00,77.0,43.2,29.91,North,-999,0.0,4.0,30,0.00,,,-99.99,FreeWX 2.04,2013-07-26 16:15:00,
2013-07-26 12:20:00,77.0,41.4,29.91,North,-999,0.0,5.8,28,0.00,,,-99.99,FreeWX 2.04,2013-07-26 16:20:00,
2013-07-26 12:25:00,77.2,40.6,29.91,ESE,122,1.0,5.4,27,0.00,,,-99.99,FreeWX 2.04,2013-07-26 16:25:00,
2013-07-26 12:30:00,78.6,40.8,29.91,NNE,30,1.0,4.5,26,0.00,,,-99.99,FreeWX 2.04,2013-07-26 16:30:00,
2013-07-26 12:35:00,79.0,40.1,29.91,North,-999,0.0,5.4,25,0.00,,,-99.99,FreeWX 2.04,2013-07-26 16:35:00,
2013-07-26 12:45:00,81.3,39.9,29.91,North,-999,0.0,2.7,23,0.00,,,-99.99,FreeWX 2.04,2013-07-26 16:45:00,
2013-07-26 12:50:00,83.3,39.2,29.91,North,-999,0.0,5.8,21,0.00,,,-99.99,FreeWX 2.04,2013-07-26 16:50:00,
2013-07-26 12:55:00,82.8,37.6,29.91,NNE,14,1.0,5.8,20,0.00,,,-99.99,FreeWX 2.04,2013-07-26 16:55:00,
2013-07-26 13:00:00,81.7,37.9,29.91,WSW,240,1.0,5.8,21,0.00,,,-99.99,FreeWX 2.04,2013-07-26 17:00:00,
2013-07-26 13:05:00,82.4,38.5,29.91,South,191,1.0,5.4,21,0.00,,,-99.99,FreeWX 2.04,2013-07-26 17:05:00,
2013-07-26 13:10:00,84.4,37.6,29.91,South,177,1.0,5.4,19,0.00,,,-99.99,FreeWX 2.04,2013-07-26 17:10:00,
2013-07-26 13:15:00,84.4,38.8,29.91,South,181,1.0,5.8,20,0.00,,,-99.99,FreeWX 2.04,2013-07-26 17:15:00,
2013-07-26 13:20:00,84.9,38.1,29.91,South,187,1.0,4.5,19,0.00,,,-99.99,FreeWX 2.04,2013-07-26 17:20:00,
2013-07-26 13:25:00,86.0,37.6,29.91,South,178,2.0,5.4,18,0.00,,,-99.99,FreeWX 2.04,2013-07-26 17:25:00,
2013-07-26 13:30:00,84.4,37.6,29.91,West,262,2.0,5.4,19,0.00,,,-99.99,FreeWX 2.04,2013-07-26 17:30:00,
2013-07-26 13:40:00,83.1,37.9,29.88,WSW,239,1.0,6.3,20,0.00,,,-99.99,FreeWX 2.04,2013-07-26 17:40:00,
2013-07-26 13:45:00,84.6,37.8,29.88,SSW,210,1.0,6.3,19,0.00,,,-99.99,FreeWX 2.04,2013-07-26 17:45:00,
2013-07-26 13:50:00,84.0,37.2,29.88,SW,218,2.0,5.4,19,0.00,,,-99.99,FreeWX 2.04,2013-07-26 17:50:00,
2013-07-26 13:55:00,83.7,38.3,29.88,East,86,1.0,2.7,20,0.00,,,-99.99,FreeWX 2.04,2013-07-26 17:55:00,
2013-07-26 14:00:00,84.0,37.2,29.88,North,-999,0.0,6.7,19,0.00,,,-99.99,FreeWX 2.04,2013-07-26 18:00:00,
2013-07-26 14:05:00,85.1,38.1,29.88,South,188,1.0,4.9,19,0.00,,,-99.99,FreeWX 2.04,2013-07-26 18:05:00,
2013-07-26 14:10:00,86.2,37.8,29.88,SSW,210,2.0,5.4,18,0.00,,,-99.99,FreeWX 2.04,2013-07-26 18:10:00,
2013-07-26 14:15:00,86.2,37.8,29.88,WSW,241,2.0,6.9,18,0.00,,,-99.99,FreeWX 2.04,2013-07-26 18:15:00,
2013-07-26 14:20:00,85.5,37.0,29.88,West,276,2.0,5.4,18,0.00,,,-99.99,FreeWX 2.04,2013-07-26 18:20:00,
2013-07-26 14:25:00,84.0,36.0,29.88,West,270,2.0,5.4,18,0.00,,,-99.99,FreeWX 2.04,2013-07-26 18:25:00,
2013-07-26 14:30:00,82.6,36.1,29.88,West,267,2.0,5.8,19,0.00,,,-99.99,FreeWX 2.04,2013-07-26 18:30:00,
2013-07-26 14:40:00,80.8,36.0,29.88,West,267,2.0,6.7,20,0.00,,,-99.99,FreeWX 2.04,2013-07-26 18:40:00,
2013-07-26 14:45:00,80.4,35.6,29.88,WNW,291,2.0,6.3,20,0.00,,,-99.99,FreeWX 2.04,2013-07-26 18:45:00,
2013-07-26 14:50:00,79.7,36.3,29.88,West,270,2.0,6.7,21,0.00,,,-99.99,FreeWX 2.04,2013-07-26 18:50:00,
2013-07-26 14:55:00,79.2,37.0,29.88,WSW,258,1.0,5.4,22,0.00,,,-99.99,FreeWX 2.04,2013-07-26 18:55:00,
2013-07-26 15:00:00,80.2,36.7,29.88,WNW,283,1.0,7.8,21,0.00,,,-99.99,FreeWX 2.04,2013-07-26 19:00:00,
2013-07-26 15:05:00,82.0,37.0,29.88,SW,221,2.0,5.4,20,0.00,,,-99.99,FreeWX 2.04,2013-07-26 19:05:00,
2013-07-26 15:10:00,82.8,36.3,29.88,South,184,1.0,8.3,19,0.00,,,-99.99,FreeWX 2.04,2013-07-26 19:10:00,
2013-07-26 15:15:00,82.2,35.8,29.88,North,-999,0.0,4.9,19,0.00,,,-99.99,FreeWX 2.04,2013-07-26 19:15:00,
2013-07-26 15:20:00,81.3,36.3,29.88,SW,236,1.0,6.7,20,0.00,,,-99.99,FreeWX 2.04,2013-07-26 19:20:00,
2013-07-26 15:25:00,80.2,35.4,29.85,SW,234,2.0,4.0,20,0.00,,,-99.99,FreeWX 2.04,2013-07-26 19:25:00,
2013-07-26 15:30:00,80.6,37.0,29.85,NNW,347,1.0,5.8,21,0.00,,,-99.99,FreeWX 2.04,2013-07-26 19:30:00,
2013-07-26 15:40:00,80.4,36.9,29.85,WSW,245,1.0,4.5,21,0.00,,,-99.99,FreeWX 2.04,2013-07-26 19:40:00,
2013-07-26 15:45:00,80.4,36.9,29.85,West,265,1.0,4.5,21,0.00,,,-99.99,FreeWX 2.04,2013-07-26 19:45:00,
2013-07-26 15:50:00,80.1,36.5,29.85,North,-999,0.0,0.0,21,0.00,,,-99.99,FreeWX 2.04,2013-07-26 19:50:00,
2013-07-26 15:55:00,79.7,36.3,29.85,West,281,1.0,5.8,21,0.00,,,-99.99,FreeWX 2.04,2013-07-26 19:55:00,
2013-07-26 16:00:00,79.5,36.1,29.85,West,281,2.0,4.0,21,0.00,,,-99.99,FreeWX 2.04,2013-07-26 20:00:00,
2013-07-26 16:05:00,80.1,36.5,29.85,WSW,249,1.0,6.3,21,0.00,,,-99.99,FreeWX 2.04,2013-07-26 20:05:00,
2013-07-26 16:10:00,79.5,36.1,29.85,West,263,1.0,5.4,21,0.00,,,-99.99,FreeWX 2.04,2013-07-26 20:10:00,
2013-07-26 16:15:00,78.8,35.6,29.85,West,279,2.0,4.9,21,0.00,,,-99.99,FreeWX 2.04,2013-07-26 20:15:00,
2013-07-26 16:20:00,78.8,35.6,29.85,SW,234,1.0,4.5,21,0.00,,,-99.99,FreeWX 2.04,2013-07-26 20:20:00,
2013-07-26 16:25:00,78.4,35.2,29.85,North,-999,0.0,3.6,21,0.00,,,-99.99,FreeWX 2.04,2013-07-26 20:25:00,
2013-07-26 16:30:00,78.3,36.3,29.85,North,-999,0.0,6.3,22,0.00,,,-99.99,FreeWX 2.04,2013-07-26 20:30:00,
2013-07-26 16:35:00,77.7,35.8,29.85,North,-999,0.0,4.5,22,0.00,,,-99.99,FreeWX 2.04,2013-07-26 20:35:00,
2013-07-26 16:40:00,77.4,36.7,29.85,North,-999,0.0,6.3,23,0.00,,,-99.99,FreeWX 2.04,2013-07-26 20:40:00,
2013-07-26 16:45:00,76.8,36.1,29.85,SW,216,1.0,4.0,23,0.00,,,-99.99,FreeWX 2.04,2013-07-26 20:45:00,
2013-07-26 16:50:00,76.5,37.0,29.85,West,273,1.0,4.9,24,0.00,,,-99.99,FreeWX 2.04,2013-07-26 20:50:00,
2013-07-26 16:55:00,77.0,36.3,29.85,North,-999,0.0,5.4,23,0.00,,,-99.99,FreeWX 2.04,2013-07-26 20:55:00,
2013-07-26 17:05:00,77.7,37.0,29.85,North,-999,0.0,4.5,23,0.00,,,-99.99,FreeWX 2.04,2013-07-26 21:05:00,
2013-07-26 17:10:00,77.7,37.0,29.85,North,-999,0.0,3.1,23,0.00,,,-99.99,FreeWX 2.04,2013-07-26 21:10:00,
2013-07-26 17:15:00,78.1,37.2,29.85,North,-999,0.0,3.6,23,0.00,,,-99.99,FreeWX 2.04,2013-07-26 21:15:00,
2013-07-26 17:20:00,78.8,36.7,29.85,North,-999,0.0,3.6,22,0.00,,,-99.99,FreeWX 2.04,2013-07-26 21:20:00,
2013-07-26 17:25:00,78.4,36.5,29.85,North,-999,0.0,0.0,22,0.00,,,-99.99,FreeWX 2.04,2013-07-26 21:25:00,
2013-07-26 17:30:00,77.5,35.6,29.85,North,-999,0.0,0.0,22,0.00,,,-99.99,FreeWX 2.04,2013-07-26 21:30:00,
2013-07-26 17:35:00,76.8,36.1,29.85,North,-999,0.0,0.0,23,0.00,,,-99.99,FreeWX 2.04,2013-07-26 21:35:00,
2013-07-26 17:40:00,76.1,36.7,29.85,North,-999,0.0,0.0,24,0.00,,,-99.99,FreeWX 2.04,2013-07-26 21:40:00,
2013-07-26 17:45:00,75.9,37.6,29.85,North,-999,0.0,0.0,25,0.00,,,-99.99,FreeWX 2.04,2013-07-26 21:45:00,
2013-07-26 17:50:00,75.9,38.5,29.85,North,-999,0.0,0.0,26,0.00,,,-99.99,FreeWX 2.04,2013-07-26 21:50:00,
2013-07-26 17:55:00,75.7,38.5,29.85,North,-999,0.0,0.0,26,0.00,,,-99.99,FreeWX 2.04,2013-07-26 21:55:00,
2013-07-26 18:00:00,75.4,39.0,29.85,North,-999,0.0,0.0,27,0.00,,,-99.99,FreeWX 2.04,2013-07-26 22:00:00,
2013-07-26 18:05:00,75.2,38.8,29.85,North,-999,0.0,3.6,27,0.00,,,-99.99,FreeWX 2.04,2013-07-26 22:05:00,
2013-07-26 18:10:00,75.0,38.8,29.82,North,-999,0.0,0.0,27,0.00,,,-99.99,FreeWX 2.04,2013-07-26 22:10:00,
2013-07-26 18:15:00,74.8,38.7,29.82,North,-999,0.0,0.0,27,0.00,,,-99.99,FreeWX 2.04,2013-07-26 22:15:00,
2013-07-26 18:20:00,74.5,40.1,29.82,North,-999,0.0,0.0,29,0.00,,,-99.99,FreeWX 2.04,2013-07-26 22:20:00,
2013-07-26 18:25:00,74.3,39.9,29.82,North,-999,0.0,0.0,29,0.00,,,-99.99,FreeWX 2.04,2013-07-26 22:25:00,
2013-07-26 18:30:00,73.9,41.4,29.82,North,-999,0.0,0.0,31,0.00,,,-99.99,FreeWX 2.04,2013-07-26 22:30:00,
2013-07-26 18:35:00,73.9,41.4,29.82,North,-999,0.0,0.0,31,0.00,,,-99.99,FreeWX 2.04,2013-07-26 22:35:00,
2013-07-26 18:40:00,73.6,41.0,29.82,North,-999,0.0,0.0,31,0.00,,,-99.99,FreeWX 2.04,2013-07-26 22:40:00,
2013-07-26 18:45:00,73.4,41.0,29.82,North,-999,0.0,0.0,31,0.00,,,-99.99,FreeWX 2.04,2013-07-26 22:45:00,
2013-07-26 18:50:00,73.2,40.8,29.82,North,-999,0.0,0.0,31,0.00,,,-99.99,FreeWX 2.04,2013-07-26 22:50:00,
2013-07-26 18:55:00,73.2,42.4,29.82,North,-999,0.0,0.0,33,0.00,,,-99.99,FreeWX 2.04,2013-07-26 22:55:00,
2013-07-26 19:00:00,72.7,41.9,29.82,North,-999,0.0,4.0,33,0.00,,,-99.99,FreeWX 2.04,2013-07-26 23:00:00,
2013-07-26 19:05:00,72.7,43.5,29.82,North,-999,0.0,0.0,35,0.00,,,-99.99,FreeWX 2.04,2013-07-26 23:05:00,
2013-07-26 19:10:00,72.5,44.1,29.82,North,-999,0.0,0.0,36,0.00,,,-99.99,FreeWX 2.04,2013-07-26 23:10:00,
2013-07-26 19:15:00,72.3,43.9,29.82,North,-999,0.0,0.0,36,0.00,,,-99.99,FreeWX 2.04,2013-07-26 23:15:00,
2013-07-26 19:21:00,72.1,44.4,29.82,North,-999,0.0,0.0,37,0.00,,,-99.99,FreeWX 2.04,2013-07-26 23:21:00,
2013-07-26 19:26:00,72.0,44.2,29.82,North,-999,0.0,0.0,37,0.00,,,-99.99,FreeWX 2.04,2013-07-26 23:26:00,
2013-07-26 19:31:00,71.6,43.9,29.82,North,-999,0.0,0.0,37,0.00,,,-99.99,FreeWX 2.04,2013-07-26 23:31:00,
2013-07-26 19:36:00,71.2,45.0,29.82,North,-999,0.0,0.0,39,0.00,,,-99.99,FreeWX 2.04,2013-07-26 23:36:00,
2013-07-26 19:41:00,70.7,46.4,29.82,North,-999,0.0,0.0,42,0.00,,,-99.99,FreeWX 2.04,2013-07-26 23:41:00,
2013-07-26 19:46:00,70.2,46.0,29.82,North,-999,0.0,0.0,42,0.00,,,-99.99,FreeWX 2.04,2013-07-26 23:46:00,
2013-07-26 19:56:00,69.1,46.2,29.82,North,-999,0.0,0.0,44,0.00,,,-99.99,FreeWX 2.04,2013-07-26 23:56:00,
2013-07-26 20:01:00,68.5,46.4,29.82,North,-999,0.0,3.1,45,0.00,,,-99.99,FreeWX 2.04,2013-07-27 00:01:00,
2013-07-26 20:06:00,68.4,47.3,29.82,North,-999,0.0,0.0,47,0.00,,,-99.99,FreeWX 2.04,2013-07-27 00:06:00,
2013-07-26 20:11:00,68.0,48.2,29.85,North,-999,0.0,0.0,49,0.00,,,-99.99,FreeWX 2.04,2013-07-27 00:11:00,
2013-07-26 20:16:00,67.5,48.2,29.85,North,-999,0.0,0.0,50,0.00,,,-99.99,FreeWX 2.04,2013-07-27 00:16:00,
2013-07-26 20:21:00,66.9,48.7,29.85,North,-999,0.0,4.5,52,0.04,,,-99.99,FreeWX 2.04,2013-07-27 00:21:00,
2013-07-26 20:26:00,66.4,49.3,29.85,North,-999,0.0,4.0,54,0.04,,,-99.99,FreeWX 2.04,2013-07-27 00:26:00,
2013-07-26 20:31:00,66.0,49.5,29.85,North,-999,0.0,0.0,55,0.08,,,-99.99,FreeWX 2.04,2013-07-27 00:31:00,
2013-07-26 20:36:00,65.7,50.0,29.85,North,-999,0.0,3.6,57,0.16,,,-99.99,FreeWX 2.04,2013-07-27 00:36:00,
2013-07-26 20:46:00,65.1,50.4,29.82,North,-999,0.0,0.0,59,0.24,,,-99.99,FreeWX 2.04,2013-07-27 00:46:00,
2013-07-26 20:51:00,65.1,51.3,29.82,North,-999,0.0,0.0,61,0.28,,,-99.99,FreeWX 2.04,2013-07-27 00:51:00,
2013-07-26 20:56:00,65.1,51.8,29.82,North,-999,0.0,0.0,62,0.28,,,-99.99,FreeWX 2.04,2013-07-27 00:56:00,
2013-07-26 21:01:00,65.1,52.7,29.82,North,-999,0.0,0.0,64,0.28,,,-99.99,FreeWX 2.04,2013-07-27 01:01:00,
2013-07-26 21:06:00,65.1,53.1,29.82,North,-999,0.0,0.0,65,0.31,,,-99.99,FreeWX 2.04,2013-07-27 01:06:00,
2013-07-26 21:11:00,64.9,53.2,29.82,North,-999,0.0,0.0,66,0.31,,,-99.99,FreeWX 2.04,2013-07-27 01:11:00,
2013-07-26 21:16:00,64.8,53.6,29.82,North,-999,0.0,0.0,67,0.31,,,-99.99,FreeWX 2.04,2013-07-27 01:16:00,
2013-07-26 21:21:00,64.8,54.0,29.82,North,-999,0.0,0.0,68,0.28,,,-99.99,FreeWX 2.04,2013-07-27 01:21:00,
2013-07-26 21:26:00,65.1,54.7,29.82,North,-999,0.0,0.0,69,0.24,,,-99.99,FreeWX 2.04,2013-07-27 01:26:00,
2013-07-26 21:31:00,65.1,55.0,29.82,North,-999,0.0,0.0,70,0.20,,,-99.99,FreeWX 2.04,2013-07-27 01:31:00,
2013-07-26 21:36:00,65.1,55.0,29.82,North,-999,0.0,0.0,70,0.12,,,-99.99,FreeWX 2.04,2013-07-27 01:36:00,
2013-07-26 21:41:00,64.9,54.9,29.82,North,-999,0.0,0.0,70,0.08,,,-99.99,FreeWX 2.04,2013-07-27 01:41:00,
2013-07-26 21:46:00,64.8,55.2,29.82,North,-999,0.0,0.0,71,0.04,,,-99.99,FreeWX 2.04,2013-07-27 01:46:00,